Norbank — PGIS — position and weather

sailwx.info

Track history (hours):
 
Tides and Currents Weather Stations Pressure Air Temp Water Temp Dewpoint Dewpoint Depression Visibility Wind Speed Wind Dir Waves Ship Positions

Norbank

Operator: P & O Ferries

Last reported at 2016-Sep-24 22:32 UTC. Time now 2016-Sep-25 02:00 UTC.
Position N 53°34' W 003°52'.

Length 167 m; draft 5.6 m.

Type: Ship (hazmat cat A). MMSI: 246213000.

Date/timePositionNaut miles runAvg speedWind from/ knotsBaromVisibWave heightAir tempDewpointWater temp
2016-Sep-24 22:32N 53°34' W 003°52'1515.7
2016-Sep-24 21:33N 53°33' W 003°26'16 7.9
2016-Sep-24 19:32N 53°27' W 003°01'0 0.0
2016-Sep-24 18:32N 53°27' W 003°01'0 0.0
2016-Sep-24 17:25N 53°27' W 003°01'0 0.0
2016-Sep-24 16:28N 53°27' W 003°01'10 5.2
2016-Sep-24 14:33N 53°31' W 003°17'50 3.5
2016-Sep-24 00:22N 53°33' W 004°41'6012.4
2016-Sep-23 19:33N 53°27' W 003°01'0 0.0
2016-Sep-23 17:26N 53°27' W 003°01'0 0.0
2016-Sep-23 16:28N 53°27' W 003°01'0 0.5
2016-Sep-23 15:33N 53°27' W 003°01'2311.4
2016-Sep-23 13:33N 53°31' W 003°39'23 1.3
2016-Sep-22 20:33N 53°27' W 003°01'40 5.0
2016-Sep-22 12:32N 53°33' W 004°08'17 1.2
2016-Sep-21 22:33N 53°33' W 003°40'24 7.9
2016-Sep-21 19:33N 53°27' W 003°01'0 0.0
2016-Sep-21 16:25N 53°27' W 003°01'0 0.0
2016-Sep-20 17:31N 53°27' W 003°01'7 2.2
2016-Sep-20 14:33N 53°32' W 003°09'1817.8
2016-Sep-20 13:34N 53°31' W 003°39'15 1.1
2016-Sep-19 23:24N 53°34' W 004°04'38 9.9
2016-Sep-19 19:33N 53°27' W 003°01'0 0.0
2016-Sep-19 18:30N 53°27' W 003°01'0 0.0
2016-Sep-19 16:29N 53°27' W 003°01'0 0.0
2016-Sep-19 14:28N 53°27' W 003°01'0 0.0
2016-Sep-19 13:28N 53°27' W 003°01'0 0.0
2016-Sep-19 12:30N 53°27' W 003°01'0 0.0
2016-Sep-19 11:33N 53°27' W 003°01'0 0.0
2016-Sep-19 09:32N 53°27' W 003°01'0 0.0
2016-Sep-19 07:28N 53°27' W 003°01'0 0.0
2016-Sep-19 06:31N 53°27' W 003°01'7 2.2
2016-Sep-19 03:33N 53°32' W 003°10'1514.6
2016-Sep-19 02:33N 53°31' W 003°34'46 1.8
2016-Sep-18 01:27N 53°31' W 004°52'4716.1
2016-Sep-17 22:33N 53°33' W 003°34'1716.5
2016-Sep-17 21:33N 53°31' W 003°06'5 4.6
2016-Sep-17 20:33N 53°27' W 003°01'0 0.3
2016-Sep-17 19:16N 53°27' W 003°01'22 3.8
2016-Sep-17 13:33N 53°31' W 003°37'1616.3
2016-Sep-17 12:33N 53°33' W 004°04'38 2.0
2016-Sep-16 17:33N 53°27' W 003°01'0 0.2
2016-Sep-16 15:26N 53°27' W 003°01'3913.5
2016-Sep-16 12:33N 53°33' W 004°05'19 1.4
2016-Sep-15 22:33N 53°33' W 003°33'1616.2
2016-Sep-15 21:33N 53°31' W 003°06'5 5.1
2016-Sep-15 20:32N 53°27' W 003°01'1 0.5
2016-Sep-15 18:30N 53°27' W 003°01'43 7.2
2016-Sep-15 12:33N 53°35' W 004°12'1919.0
2016-Sep-15 11:33N 53°35' W 004°44'8 0.8
2016-Sep-15 01:17N 53°31' W 004°56'5118.7
2016-Sep-14 22:33N 53°33' W 003°30'  
Track history (hours):
 
Tides and Currents Weather Stations Pressure Air Temp Water Temp Dewpoint Dewpoint Depression Visibility Wind Speed Wind Dir Waves Ship Positions

Norbank

Operator: P & O Ferries

Last reported at 2016-Sep-24 22:32 UTC. Time now 2016-Sep-25 02:00 UTC.
Position N 53°34' W 003°52'.

Length 167 m; draft 5.6 m.

Type: Ship (hazmat cat A). MMSI: 246213000.

Date/timePositionNaut miles runAvg speedWind from/ knotsBaromVisibWave heightAir tempDewpointWater temp
2016-Sep-24 22:32N 53°34' W 003°52'1515.7
2016-Sep-24 21:33N 53°33' W 003°26'16 7.9
2016-Sep-24 19:32N 53°27' W 003°01'0 0.0
2016-Sep-24 18:32N 53°27' W 003°01'0 0.0
2016-Sep-24 17:25N 53°27' W 003°01'0 0.0
2016-Sep-24 16:28N 53°27' W 003°01'10 5.2
2016-Sep-24 14:33N 53°31' W 003°17'50 3.5
2016-Sep-24 00:22N 53°33' W 004°41'6012.4
2016-Sep-23 19:33N 53°27' W 003°01'0 0.0
2016-Sep-23 17:26N 53°27' W 003°01'0 0.0
2016-Sep-23 16:28N 53°27' W 003°01'0 0.5
2016-Sep-23 15:33N 53°27' W 003°01'2311.4
2016-Sep-23 13:33N 53°31' W 003°39'23 1.3
2016-Sep-22 20:33N 53°27' W 003°01'40 5.0
2016-Sep-22 12:32N 53°33' W 004°08'17 1.2
2016-Sep-21 22:33N 53°33' W 003°40'24 7.9
2016-Sep-21 19:33N 53°27' W 003°01'0 0.0
2016-Sep-21 16:25N 53°27' W 003°01'0 0.0
2016-Sep-20 17:31N 53°27' W 003°01'7 2.2
2016-Sep-20 14:33N 53°32' W 003°09'1817.8
2016-Sep-20 13:34N 53°31' W 003°39'15 1.1
2016-Sep-19 23:24N 53°34' W 004°04'38 9.9
2016-Sep-19 19:33N 53°27' W 003°01'0 0.0
2016-Sep-19 18:30N 53°27' W 003°01'0 0.0
2016-Sep-19 16:29N 53°27' W 003°01'0 0.0
2016-Sep-19 14:28N 53°27' W 003°01'0 0.0
2016-Sep-19 13:28N 53°27' W 003°01'0 0.0
2016-Sep-19 12:30N 53°27' W 003°01'0 0.0
2016-Sep-19 11:33N 53°27' W 003°01'0 0.0
2016-Sep-19 09:32N 53°27' W 003°01'0 0.0
2016-Sep-19 07:28N 53°27' W 003°01'0 0.0
2016-Sep-19 06:31N 53°27' W 003°01'7 2.2
2016-Sep-19 03:33N 53°32' W 003°10'1514.6
2016-Sep-19 02:33N 53°31' W 003°34'46 1.8
2016-Sep-18 01:27N 53°31' W 004°52'4716.1
2016-Sep-17 22:33N 53°33' W 003°34'1716.5
2016-Sep-17 21:33N 53°31' W 003°06'5 4.6
2016-Sep-17 20:33N 53°27' W 003°01'0 0.3
2016-Sep-17 19:16N 53°27' W 003°01'22 3.8
2016-Sep-17 13:33N 53°31' W 003°37'1616.3
2016-Sep-17 12:33N 53°33' W 004°04'38 2.0
2016-Sep-16 17:33N 53°27' W 003°01'0 0.2
2016-Sep-16 15:26N 53°27' W 003°01'3913.5
2016-Sep-16 12:33N 53°33' W 004°05'19 1.4
2016-Sep-15 22:33N 53°33' W 003°33'1616.2
2016-Sep-15 21:33N 53°31' W 003°06'5 5.1
2016-Sep-15 20:32N 53°27' W 003°01'1 0.5
2016-Sep-15 18:30N 53°27' W 003°01'43 7.2
2016-Sep-15 12:33N 53°35' W 004°12'1919.0
2016-Sep-15 11:33N 53°35' W 004°44'8 0.8
2016-Sep-15 01:17N 53°31' W 004°56'5118.7
2016-Sep-14 22:33N 53°33' W 003°30'  

Dump ship's entire track history